Flight Track Log - Related Links

Times and Time Zones

All times are in EDT time to prevent confusion due to time zone crossing. See the N1926A flight status page for this flight to view local times or setup timezone preferences in your user account.

Time Position Orientation Groundspeed Altitude Reporting Facility
EDT Latitude Longitude Course Direction KTS MPH feet Rate Location/Type
Fri 06:14:18 PM 36.3919 -94.1828 127° Southeast 162 186 5,600  Level Memphis Center
Fri 06:15:18 PM 36.3617 -94.1503 139° Southeast 161 185 7,800 2,150 Climbing Memphis Center
Fri 06:16:18 PM 36.3292 -94.1156 139° Southeast 161 185 9,900 2,050 Climbing Memphis Center
Fri 06:17:18 PM 36.2950 -94.0753 136° Southeast 161 185 11,900 2,100 Climbing Memphis Center
Fri 06:18:18 PM 36.2650 -94.0300 129° Southeast 161 185 14,100 2,000 Climbing Memphis Center
Fri 06:19:00 PM 36.0647 -93.7765 127° Southeast  Level Estimated
Fri 06:19:18 PM 36.2372 -93.9825 126° Southeast 166 191 15,900  Level Memphis Center
Fri 06:20:18 PM 36.2075 -93.9350 128° Southeast 173 199 17,700 1,550 Climbing Memphis Center
Fri 06:21:18 PM 36.1756 -93.8847 128° Southeast 178 205 19,000 1,300 Climbing Memphis Center
Fri 06:22:18 PM 36.1497 -93.8347 123° Southeast 183 211 20,300 1,300 Climbing Memphis Center
Fri 06:23:18 PM 36.1178 -93.7819 127° Southeast 188 216 21,600 1,300 Climbing Memphis Center
Fri 06:24:18 PM 36.0858 -93.7319 128° Southeast 188 216 22,900 1,200 Climbing Memphis Center
Fri 06:25:18 PM 36.0497 -93.6789 130° Southeast 188 216 24,000 1,050 Climbing Memphis Center
Fri 06:26:18 PM 36.0136 -93.6236 129° Southeast 193 222 25,000 500 Climbing Memphis Center
Fri 06:27:18 PM 35.9694 -93.5603 131° Southeast 218 251 25,000  Level Memphis Center
Fri 06:28:18 PM 35.9233 -93.4867 128° Southeast 249 287 25,000  Level Memphis Center
Fri 06:29:18 PM 35.8731 -93.4106 129° Southeast 267 307 25,000  Level Memphis Center
Fri 06:30:18 PM 35.8272 -93.3319 126° Southeast 285 328 25,000  Level Memphis Center
Fri 06:31:18 PM 35.7769 -93.2536 128° Southeast 285 328 25,000  Level Memphis Center
Fri 06:32:18 PM 35.7264 -93.1775 129° Southeast 285 328 25,000  Level Memphis Center
Fri 06:33:18 PM 35.6739 -93.1017 130° Southeast 285 328 25,000  Level Memphis Center
Fri 06:34:18 PM 35.6233 -93.0286 130° Southeast 280 322 25,000  Level Memphis Center
Fri 06:35:18 PM 35.5708 -92.9528 130° Southeast 288 331 25,000  Level Memphis Center
Fri 06:36:18 PM 35.5242 -92.8850 130° Southeast 288 331 25,000  Level Memphis Center
Fri 06:37:18 PM 35.4736 -92.8019 127° Southeast 288 331 25,000  Level Memphis Center
Fri 06:38:18 PM 35.4250 -92.7242 127° Southeast 293 337 25,000  Level Memphis Center
Fri 06:39:18 PM 35.3744 -92.6386 126° Southeast 298 343 25,000  Level Memphis Center
Fri 06:40:18 PM 35.3236 -92.5686 132° Southeast 292 336 25,000  Level Memphis Center
Fri 06:41:18 PM 35.2750 -92.4936 128° Southeast 287 330 25,000  Level Memphis Center
Fri 06:42:18 PM 35.2242 -92.4186 130° Southeast 287 330 25,000  Level Memphis Center
Fri 06:43:18 PM 35.1731 -92.3461 131° Southeast 287 330 25,000  Level Memphis Center
Fri 06:44:18 PM 35.1219 -92.2714 130° Southeast 287 330 25,000  Level Memphis Center
Fri 06:45:18 PM 35.0731 -92.1967 129° Southeast 287 330 25,000  Level Memphis Center
Fri 06:46:18 PM 35.0219 -92.1219 130° Southeast 287 330 25,000  Level Memphis Center
Fri 06:47:18 PM 34.9711 -92.0447 129° Southeast 287 330 25,000  Level Memphis Center
Fri 06:48:18 PM 34.9239 -91.9706 128° Southeast 287 330 25,000  Level Memphis Center
Fri 06:49:18 PM 34.8706 -91.8961 131° Southeast 287 330 25,000  Level Memphis Center
Fri 06:50:18 PM 34.8236 -91.8194 127° Southeast 287 330 25,000  Level Memphis Center
Fri 06:51:18 PM 34.7722 -91.7478 131° Southeast 287 330 25,000  Level Memphis Center
Fri 06:52:18 PM 34.7189 -91.6658 128° Southeast 287 330 25,000  Level Memphis Center
Fri 06:53:18 PM 34.6717 -91.5919 128° Southeast 281 323 25,000  Level Memphis Center
Fri 06:54:18 PM 34.6161 -91.5156 131° Southeast 286 329 25,000  Level Memphis Center
Fri 06:55:18 PM 34.5667 -91.4467 131° Southeast 280 322 25,000  Level Memphis Center
Fri 06:56:18 PM 34.5150 -91.3728 130° Southeast 286 329 25,000  Level Memphis Center
Fri 06:57:18 PM 34.4656 -91.3019 130° Southeast 286 329 25,000  Level Memphis Center
Fri 06:58:18 PM 34.4119 -91.2258 130° Southeast 286 329 25,000  Level Memphis Center
Fri 06:59:18 PM 34.3600 -91.1547 131° Southeast 286 329 25,000  Level Memphis Center
Fri 07:00:18 PM 34.3083 -91.0814 130° Southeast 286 329 25,000  Level Memphis Center
Fri 07:01:18 PM 34.2586 -91.0081 129° Southeast 286 329 25,000  Level Memphis Center
Fri 07:02:18 PM 34.2131 -90.9450 131° Southeast 286 329 25,000  Level Memphis Center
Fri 07:03:18 PM 34.1611 -90.8767 133° Southeast 281 323 25,000  Level Memphis Center
Fri 07:04:18 PM 34.1114 -90.8061 130° Southeast 281 323 25,000  Level Memphis Center
Fri 07:05:18 PM 34.0617 -90.7333 130° Southeast 281 323 25,000  Level Memphis Center
Fri 07:06:18 PM 34.0117 -90.6628 131° Southeast 281 323 25,000  Level Memphis Center
Fri 07:07:18 PM 33.9597 -90.5875 130° Southeast 281 323 25,000  Level Memphis Center
Fri 07:08:18 PM 33.9097 -90.5150 130° Southeast 281 323 25,000  Level Memphis Center
Fri 07:09:18 PM 33.8575 -90.4422 131° Southeast 281 323 25,000  Level Memphis Center
Fri 07:10:18 PM 33.8094 -90.3672 128° Southeast 281 323 25,000  Level Memphis Center
Fri 07:11:18 PM 33.7575 -90.2947 131° Southeast 281 323 25,000  Level Memphis Center
Fri 07:12:18 PM 33.7072 -90.2247 131° Southeast 281 323 25,000  Level Memphis Center
Fri 07:13:18 PM 33.6569 -90.1550 131° Southeast 281 323 25,000  Level Memphis Center
Fri 07:14:18 PM 33.6047 -90.0828 131° Southeast 281 323 25,000  Level Memphis Center
Fri 07:15:18 PM 33.5522 -90.0133 132° Southeast 281 323 25,000  Level Memphis Center
Fri 07:16:18 PM 33.5019 -89.9411 130° Southeast 281 323 25,000  Level Memphis Center
Fri 07:17:18 PM 33.4517 -89.8692 130° Southeast 281 323 25,000  Level Memphis Center
Fri 07:18:18 PM 33.4014 -89.7997 131° Southeast 281 323 25,000  Level Memphis Center
Fri 07:19:18 PM 33.3508 -89.7306 131° Southeast 281 323 25,000  Level Memphis Center
Fri 07:20:18 PM 33.3003 -89.6614 131° Southeast 281 323 25,000  Level Memphis Center
Fri 07:21:18 PM 33.2519 -89.5897 129° Southeast 281 323 25,000  Level Memphis Center
Fri 07:22:18 PM 33.1994 -89.5206 132° Southeast 281 323 25,000  Level Memphis Center
Fri 07:23:18 PM 33.1486 -89.4517 131° Southeast 281 323 25,000  Level Memphis Center
Fri 07:24:18 PM 33.0981 -89.3828 131° Southeast 281 323 25,000  Level Memphis Center
Fri 07:25:18 PM 33.0475 -89.3089 129° Southeast 281 323 25,000  Level Memphis Center
Fri 07:26:18 PM 32.9944 -89.2378 132° Southeast 281 323 25,000  Level Memphis Center
Fri 07:27:18 PM 32.9417 -89.1617 130° Southeast 281 323 25,000  Level Memphis Center
Fri 07:28:18 PM 32.8908 -89.0906 130° Southeast 281 323 25,000  Level Memphis Center
Fri 07:29:18 PM 32.8381 -89.0244 134° Southeast 281 323 25,000  Level Memphis Center
Fri 07:30:18 PM 32.7850 -88.9536 132° Southeast 281 323 25,000  Level Memphis Center
Fri 07:31:18 PM 32.7342 -88.8828 130° Southeast 281 323 25,000  Level Memphis Center
Fri 07:32:18 PM 32.6811 -88.8122 132° Southeast 281 323 25,000  Level Memphis Center
Fri 07:33:18 PM 32.6300 -88.7417 131° Southeast 281 323 25,000  Level Memphis Center
Fri 07:34:18 PM 32.5728 -88.6736 135° Southeast 281 323 25,000  Level Memphis Center
Fri 07:35:18 PM 32.5197 -88.6056 133° Southeast 281 323 25,000  Level Memphis Center
Fri 07:37:04 PM 32.4264 -88.4828 132° Southeast 299 344 25,000  Level Atlanta Center
Fri 07:38:04 PM 32.3747 -88.4089 130° Southeast 299 344 25,000  Level Atlanta Center
Fri 07:39:04 PM 32.3231 -88.3328 129° Southeast 294 338 25,000  Level Atlanta Center
Fri 07:40:04 PM 32.2711 -88.2639 132° Southeast 289 333 25,000  Level Atlanta Center
Fri 07:41:04 PM 32.2194 -88.1878 129° Southeast 289 333 25,000  Level Atlanta Center
Fri 07:42:04 PM 32.1633 -88.1189 134° Southeast 289 333 25,000  Level Atlanta Center
Fri 07:43:04 PM 32.1072 -88.0478 133° Southeast 289 333 25,000  Level Atlanta Center
Fri 07:44:04 PM 32.0553 -87.9792 132° Southeast 289 333 25,000  Level Atlanta Center
Fri 07:45:04 PM 32.0031 -87.9108 132° Southeast 282 325 25,000 -100 Level Atlanta Center
Fri 07:46:04 PM 31.9511 -87.8400 131° Southeast 282 325 24,800 -350 Descending Atlanta Center
Fri 07:47:04 PM 31.8950 -87.7667 132° Southeast 282 325 24,300 -400 Descending Atlanta Center
Fri 07:48:04 PM 31.8386 -87.6936 132° Southeast 289 333 24,000 -150 Descending Atlanta Center
Fri 07:49:04 PM 31.7867 -87.6181 129° Southeast 294 338 24,000  Level Atlanta Center
Fri 07:50:04 PM 31.7325 -87.5453 131° Southeast 294 338 24,000  Level Atlanta Center
Fri 07:51:04 PM 31.6761 -87.4697 131° Southeast 289 333 24,000  Level Atlanta Center
Fri 07:53:30 PM 31.5447 -87.3094 134° Southeast 300 345 24,000  Level Jacksonville Center
Fri 07:54:30 PM 31.4928 -87.2411 132° Southeast 293 337 24,000  Level Jacksonville Center
Fri 07:55:30 PM 31.4367 -87.1706 133° Southeast 288 331 24,000 -200 Level Jacksonville Center
Fri 07:56:30 PM 31.3869 -87.1000 130° Southeast 283 326 23,600 -6,500 Descending Jacksonville Center
Fri 07:57:30 PM 31.3244 -87.0292 136° Southeast 291 335 11,000 -1,400 Descending Jacksonville Center
Fri 07:58:30 PM 31.2625 -86.9486 132° Southeast 306 352 20,800 4,300 Climbing Jacksonville Center
Fri 07:59:30 PM 31.2042 -86.8733 132° Southeast 311 358 19,600 -1,100 Descending Jacksonville Center
Fri 08:00:30 PM 31.1439 -86.7981 133° Southeast 306 352 18,600 -950 Descending Jacksonville Center
Fri 08:01:30 PM 31.0897 -86.7278 132° Southeast 301 346 17,700 -1,050 Descending Jacksonville Center
Fri 08:02:30 PM 31.0356 -86.6578 132° Southeast 296 341 16,500 -1,150 Descending Jacksonville Center
Fri 08:03:30 PM 30.9831 -86.5928 133° Southeast 304 350 15,400 -1,150 Descending Jacksonville Center
Fri 08:04:30 PM 30.9308 -86.5228 131° Southeast 298 343 14,200 -1,050 Descending Jacksonville Center
Fri 08:05:30 PM 30.8831 -86.4458 126° Southeast 292 336 13,300 -750 Descending Jacksonville Center
Fri 08:06:30 PM 30.8389 -86.3767 127° Southeast 286 329 12,700 -450 Descending Jacksonville Center
Fri 08:07:30 PM 30.7969 -86.3072 125° Southeast 273 314 12,400 -450 Descending Jacksonville Center
Fri 08:08:30 PM 30.7550 -86.2381 125° Southeast 273 314 11,800 -550 Descending Jacksonville Center
Fri 08:09:30 PM 30.7236 -86.1619 116° Southeast 268 308 11,300 -600 Descending Jacksonville Center
Fri 08:10:30 PM 30.6958 -86.0983 117° Southeast 239 275 10,600 -1,050 Descending Jacksonville Center
Fri 08:11:30 PM 30.6617 -86.0514 130° Southeast 211 243 9,200 -1,450 Descending Jacksonville Center
Fri 08:12:30 PM 30.6272 -86.0067 132° Southeast 191 220 7,700 -1,550 Descending Jacksonville Center
Fri 08:13:30 PM 30.6011 -85.9625 124° Southeast 183 211 6,100 -1,550 Descending Jacksonville Center
Fri 08:14:30 PM 30.5689 -85.9203 132° Southeast 177 204 4,600 -1,200 Descending Jacksonville Center
Fri 08:15:30 PM 30.5297 -85.8903 147° Southeast 167 192 3,700 -800 Descending Jacksonville Center
Fri 08:16:30 PM 30.4928 -85.8625 147° Southeast 162 186 3,000 -850 Descending Jacksonville Center
Fri 08:17:30 PM 30.4539 -85.8372 151° Southeast 162 186 2,000 -1,000 Descending Jacksonville Center
Fri 08:18:30 PM 30.4144 -85.8217 161° South 156 180 1,000 -750 Descending Jacksonville Center
Fri 08:19:30 PM 30.3794 -85.8061 159° South 145 167 500 -400 Descending Jacksonville Center
Fri 08:20:30 PM 30.3400 -85.7903 161° South 139 160 200 -300 Descending Jacksonville Center
Fri 08:22:00 PM 30.3500 -85.7833 North  Level FlightAware Approximate

Login

Don't have an account? Register now (free) for customized features, flight alerts, and more!